Antelope, Montana
Current Conditions -  °F | °C
As of 1:52 PM on Friday 19 Dec 2014 (Local Time) from KISN Reporting Station
Haze Haze  
Wind Chill: -3°   Ceiling: 200
Heat Index: -3°   Visibility: 4mi
Dew Point: -4°   Wind: 3mph
Humidity: 92%   Direction: 90°E
Pressure: 29.9"   Gusts: NA
Location:  48.69°N, 104.46°W
Report Text: KISN 192052Z AUTO 09003KT 4SM BR OVC002 M03/M04 A2990 RMK AO2 SLP155 T10331044 58008
Loading
Personal Weather Stations






























Interactive Weather Map New forecast layout! Learn more

10-Day Weather Forecast

Advertisements
Track Severe Weather on mobile